Atyray, Kazakhstan

3:33 AM AQTT on August 30, 2014 (GMT +0500)
Atyrau | Change Station
CLOSE
Current Station
Airport
Location: Atyrau,
Elevation: -72 ft
Nearby Weather Stations

Elev -72 ft 47.12 °N, 51.83 °E | Updated 33 minutes ago

Mostly Cloudy
Mostly Cloudy
73 °F
Feels Like 73 °F
N
11
Wind Variable Wind from North

Today
High -- | Low -- °F
--% Chance of Precip.
Yesterday
High -- | Low -- °F
Precip. -- in
6:48 AM 8:16 PM
Waxing Crescent, 17% visible
Pressure 29.89 in
Visibility 6.2 miles
Clouds Few 3300 ft
Mostly Cloudy 16000 ft
Dew Point 50 °F
Humidity 44%
Rainfall 0.00 in
Snow Depth Not available.
UV 0 out of 12
Pollen Not available.
Air Quality Not available.
Flu Activity Not available.
METAR UATG 292200Z 36005MPS 9999 FEW033CB BKN160 23/10 Q1012 R32/CLRD70 NOSIG RMK QFE761/1015

More Conditions Fewer Conditions

Pressure 29.89 in
Visibility 6.2 miles
Clouds Few 3300 ft
Mostly Cloudy 16000 ft
Dew Point 50 °F
Humidity 44%
Rainfall 0.00 in
Snow Depth Not available.
UV 0 out of 12
Pollen Not available.
Air Quality Not available.
Flu Activity Not available.
METAR UATG 292200Z 36005MPS 9999 FEW033CB BKN160 23/10 Q1012 R32/CLRD70 NOSIG RMK QFE761/1015

More Conditions Fewer Conditions

10-Day Weather Forecast

Almanac

Astronomy

Aug. 30, 2014 Rise Set
Actual Time 6:48 AM AQTT 8:16 PM AQTT
Civil Twilight 6:16 AM AQTT 8:48 PM AQTT
Nautical Twilight 5:37 AM AQTT 9:26 PM AQTT
Astronomical Twilight 4:56 AM AQTT 10:08 PM AQTT
Moon 11:32 AM AQTT (8/30) 10:15 PM AQTT (8/30)
Length of Visible Light 14h 31m
Length of Day
13h 28m
Tomorrow will be 3m 15s shorter.
Waxing Crescent, 17% of the Moon is Illuminated
Aug 29
Waxing Crescent
Sep 2
First Quarter
Sep 8
Full
Sep 15
Last Quarter
Sep 24
New

Yesterday's Extremes

Country Highs Country Lows

Community

WunderPhotos

Upload Photos

1,748,363 photos uploaded!

Nearby

Snow Depth

Not available.

Earthquake Activity

City Distance Mag. Time & Date
No recent earthquake activity has been reported nearby.
Minimum magnitude displayed is 2.5.

Coastal Water Temperatures

Place Temperature
No Stations Reporting

Nearby Weather Stations